createdAt,value
2022-12-13T00:01:59.782Z,4.53
2022-12-13T00:04:28.406Z,3.73
2022-12-13T00:06:56.991Z,14.33
2022-12-13T00:09:25.614Z,27.90
2022-12-13T00:11:55.522Z,6.37
2022-12-13T00:14:23.987Z,4.43
2022-12-13T00:16:52.519Z,6.90
2022-12-13T00:19:21.483Z,6.03
2022-12-13T00:21:49.932Z,18.03
2022-12-13T00:24:18.392Z,19.23
2022-12-13T00:26:46.842Z,5.93
2022-12-13T00:29:15.786Z,4.47
2022-12-13T00:32:01.061Z,3.60
2022-12-13T00:34:30.879Z,7.17
2022-12-13T00:37:02.145Z,8.20
2022-12-13T00:39:30.933Z,8.43
2022-12-13T00:41:59.608Z,14.50
2022-12-13T00:44:28.384Z,8.77
2022-12-13T00:46:57.340Z,13.00
2022-12-13T00:49:25.876Z,12.70
2022-12-13T00:51:54.530Z,10.90
2022-12-13T00:54:23.305Z,7.73
2022-12-13T00:56:52.372Z,10.40
2022-12-13T00:59:20.981Z,7.97
2022-12-13T01:01:49.596Z,8.17
2022-12-13T01:04:18.112Z,7.43
2022-12-13T01:06:50.678Z,7.73
2022-12-13T01:09:22.554Z,9.07
2022-12-13T01:11:51.880Z,9.30
2022-12-13T01:14:20.720Z,5.60
2022-12-13T01:16:49.325Z,8.00
2022-12-13T01:19:19.129Z,7.10
2022-12-13T01:21:47.561Z,5.67
2022-12-13T01:24:16.690Z,4.17
2022-12-13T01:26:45.128Z,4.13
2022-12-13T01:29:13.589Z,3.97
2022-12-13T01:31:42.532Z,4.20
2022-12-13T01:34:12.939Z,4.23
2022-12-13T01:36:42.837Z,2.87
2022-12-13T01:39:15.134Z,3.23
2022-12-13T01:41:46.246Z,4.13
2022-12-13T01:44:51.716Z,3.90
2022-12-13T01:47:45.097Z,3.23
2022-12-13T01:50:27.649Z,3.20
2022-12-13T01:52:57.319Z,2.57
2022-12-13T01:55:33.096Z,2.70
2022-12-13T01:58:03.235Z,3.10
2022-12-13T02:00:31.724Z,2.90
2022-12-13T02:03:01.284Z,2.90
2022-12-13T02:05:42.760Z,2.60
2022-12-13T02:08:14.721Z,2.83
2022-12-13T02:10:44.831Z,3.00
2022-12-13T02:13:13.659Z,3.17
2022-12-13T02:16:12.249Z,3.20
2022-12-13T02:18:57.452Z,2.80
2022-12-13T02:21:54.599Z,3.00
2022-12-13T02:24:41.587Z,2.60
2022-12-13T02:27:30.744Z,4.00
2022-12-13T02:30:18.164Z,9.57
2022-12-13T02:32:59.013Z,4.10
2022-12-13T02:35:33.721Z,4.80
2022-12-13T02:38:28.377Z,4.13
2022-12-13T02:41:12.987Z,4.37
2022-12-13T02:44:21.696Z,3.93
2022-12-13T02:47:12.544Z,3.80
2022-12-13T02:49:45.060Z,3.17
2022-12-13T02:52:22.324Z,3.10
2022-12-13T02:54:51.183Z,2.80
2022-12-13T02:57:49.522Z,3.80
2022-12-13T03:00:25.916Z,3.77
2022-12-13T03:03:13.053Z,3.20
2022-12-13T03:06:23.985Z,4.13
2022-12-13T03:09:09.053Z,3.47
2022-12-13T03:12:11.087Z,4.80
2022-12-13T03:14:47.821Z,4.40
2022-12-13T03:17:19.163Z,3.93
2022-12-13T03:19:47.547Z,3.80
2022-12-13T03:22:17.929Z,3.90
2022-12-13T03:24:46.592Z,4.20
2022-12-13T03:27:15.162Z,4.00
2022-12-13T03:29:43.641Z,3.77
2022-12-13T03:32:12.062Z,3.70
2022-12-13T03:34:44.068Z,5.10
2022-12-13T03:37:14.645Z,4.23
2022-12-13T03:39:43.080Z,4.30
2022-12-13T03:42:11.591Z,6.87
2022-12-13T03:44:40.979Z,5.90
2022-12-13T03:47:09.532Z,4.43
2022-12-13T03:49:37.899Z,4.00
2022-12-13T03:52:06.400Z,16.50
2022-12-13T03:54:34.821Z,21.37
2022-12-13T03:57:03.320Z,5.13
2022-12-13T03:59:31.749Z,3.90
2022-12-13T04:02:00.242Z,3.30
2022-12-13T04:04:28.708Z,3.40
2022-12-13T04:06:57.092Z,3.37
2022-12-13T04:09:25.601Z,3.83
2022-12-13T04:12:12.372Z,3.30
2022-12-13T04:14:40.793Z,3.43
2022-12-13T04:17:09.398Z,3.60
2022-12-13T04:19:37.923Z,2.90
2022-12-13T04:22:06.310Z,3.83
2022-12-13T04:24:34.783Z,3.50
2022-12-13T04:27:03.356Z,4.00
2022-12-13T04:29:34.119Z,4.27
2022-12-13T04:32:26.732Z,4.57
2022-12-13T04:35:12.721Z,5.50
2022-12-13T04:37:43.326Z,4.40
2022-12-13T04:40:12.672Z,4.67
2022-12-13T04:42:41.306Z,4.27
2022-12-13T04:45:11.267Z,4.63
2022-12-13T04:47:39.672Z,6.07
2022-12-13T04:50:11.296Z,5.30
2022-12-13T04:52:40.636Z,4.80
2022-12-13T04:55:09.849Z,4.20
2022-12-13T04:57:38.323Z,4.10
2022-12-13T05:00:09.290Z,4.17
2022-12-13T05:02:38.002Z,4.33
2022-12-13T05:05:06.895Z,4.27
2022-12-13T05:07:35.340Z,4.60
2022-12-13T05:10:11.884Z,4.10
2022-12-13T05:12:40.670Z,4.50
2022-12-13T05:15:09.668Z,4.23
2022-12-13T05:17:38.138Z,4.47
2022-12-13T05:20:07.015Z,3.77
2022-12-13T05:22:38.888Z,4.10
2022-12-13T05:25:08.508Z,4.20
2022-12-13T05:27:36.886Z,4.87
2022-12-13T05:30:05.645Z,4.50
2022-12-13T05:32:43.197Z,4.43
2022-12-13T05:35:23.261Z,4.67
2022-12-13T05:37:55.599Z,5.80
2022-12-13T05:40:25.434Z,7.30
2022-12-13T05:43:00.991Z,5.70
2022-12-13T05:45:33.854Z,5.20
2022-12-13T05:48:02.696Z,5.97
2022-12-13T05:50:31.144Z,5.60
2022-12-13T05:52:59.649Z,6.03
2022-12-13T05:55:28.057Z,5.87
2022-12-13T05:58:02.379Z,6.10
2022-12-13T06:00:31.515Z,5.80
2022-12-13T06:03:01.580Z,7.30
2022-12-13T06:05:31.716Z,6.97
2022-12-13T06:08:00.291Z,7.00
2022-12-13T06:10:34.293Z,6.40
2022-12-13T06:13:21.417Z,5.70
2022-12-13T06:16:01.455Z,5.47
2022-12-13T06:18:35.491Z,5.77
2022-12-13T06:21:07.877Z,4.80
2022-12-13T06:23:37.233Z,6.43
2022-12-13T06:26:07.130Z,5.67
2022-12-13T06:28:35.641Z,5.63
2022-12-13T06:31:05.807Z,5.40
2022-12-13T06:33:37.664Z,5.80
2022-12-13T06:36:06.449Z,5.57
2022-12-13T06:38:35.176Z,5.88
2022-12-13T06:41:17.765Z,5.87
2022-12-13T06:43:47.697Z,6.55
2022-12-13T06:46:17.108Z,5.38
2022-12-13T06:48:46.277Z,6.20
2022-12-13T06:51:22.584Z,5.70
2022-12-13T06:53:51.784Z,6.50
2022-12-13T06:56:20.316Z,6.60
2022-12-13T06:58:48.887Z,6.45
2022-12-13T07:01:24.009Z,6.25
2022-12-13T07:03:56.065Z,6.90
2022-12-13T07:06:26.131Z,8.82
2022-12-13T07:08:58.926Z,8.25
2022-12-13T07:11:32.635Z,8.38
2022-12-13T07:14:01.695Z,8.60
2022-12-13T07:16:30.516Z,7.55
2022-12-13T07:19:01.553Z,8.82
2022-12-13T07:21:31.073Z,7.38
2022-12-13T07:23:59.965Z,8.60
2022-12-13T07:26:28.404Z,6.63
2022-12-13T07:28:57.259Z,8.40
2022-12-13T07:31:35.756Z,8.10
2022-12-13T07:34:04.216Z,7.88
2022-12-13T07:36:32.706Z,9.30
2022-12-13T07:39:01.134Z,8.02
2022-12-13T07:41:29.659Z,6.85
2022-12-13T07:43:58.297Z,9.02
2022-12-13T07:46:33.225Z,7.10
2022-12-13T07:49:06.708Z,7.10
2022-12-13T07:51:36.228Z,8.73
2022-12-13T07:54:06.819Z,7.22
2022-12-13T07:56:37.012Z,8.07
2022-12-13T07:59:05.483Z,8.15
2022-12-13T08:01:38.060Z,7.15
2022-12-13T08:04:06.796Z,7.80
2022-12-13T08:06:39.348Z,7.55
2022-12-13T08:09:07.838Z,7.95
2022-12-13T08:11:36.265Z,8.80
2022-12-13T08:14:04.829Z,6.65
2022-12-13T08:16:33.676Z,6.78
2022-12-13T08:19:04.661Z,7.85
2022-12-13T08:21:58.231Z,8.45
2022-12-13T08:24:28.787Z,9.30
2022-12-13T08:27:04.648Z,8.10
2022-12-13T08:29:36.128Z,7.45
2022-12-13T08:32:10.240Z,7.82
2022-12-13T08:34:39.281Z,6.10
2022-12-13T08:37:07.759Z,7.65
2022-12-13T08:39:38.405Z,8.38
2022-12-13T08:42:20.112Z,6.82
2022-12-13T08:44:51.366Z,6.53
2022-12-13T08:47:24.177Z,8.00
2022-12-13T08:50:02.137Z,8.20
2022-12-13T08:52:40.490Z,8.50
2022-12-13T08:55:15.105Z,9.85
2022-12-13T08:57:45.075Z,7.78
2022-12-13T09:00:17.298Z,8.30
2022-12-13T09:02:45.824Z,12.88
2022-12-13T09:05:32.317Z,9.60
2022-12-13T09:08:24.643Z,8.48
2022-12-13T09:11:10.594Z,9.00
2022-12-13T09:13:49.442Z,9.70
2022-12-13T09:16:24.733Z,8.90
2022-12-13T09:18:56.487Z,9.35
2022-12-13T09:21:31.304Z,9.55
2022-12-13T09:24:02.296Z,9.20
2022-12-13T09:26:38.123Z,10.32
2022-12-13T09:29:10.807Z,10.40
2022-12-13T09:31:41.332Z,10.15
2022-12-13T09:34:11.186Z,10.60
2022-12-13T09:36:39.866Z,10.02
2022-12-13T09:39:08.309Z,10.68
2022-12-13T09:41:52.058Z,10.80
2022-12-13T09:44:45.334Z,10.10
2022-12-13T09:47:47.151Z,12.00
2022-12-13T09:50:42.462Z,10.88
2022-12-13T09:53:33.679Z,9.80
2022-12-13T09:56:10.131Z,9.55
2022-12-13T09:58:40.209Z,11.55
2022-12-13T10:01:08.776Z,27.27
2022-12-13T10:03:37.256Z,25.75
2022-12-13T10:06:23.459Z,14.50
2022-12-13T10:08:57.686Z,11.63
2022-12-13T10:11:32.160Z,12.50
2022-12-13T10:14:28.740Z,11.55
2022-12-13T10:17:01.491Z,13.43
2022-12-13T10:19:44.091Z,10.38
2022-12-13T10:22:17.716Z,8.98
2022-12-13T10:25:06.918Z,11.32
2022-12-13T10:27:45.917Z,9.63
2022-12-13T10:30:28.742Z,10.10
2022-12-13T10:33:03.502Z,10.60
2022-12-13T10:35:35.284Z,8.75
2022-12-13T10:38:31.892Z,11.15
2022-12-13T10:41:01.217Z,10.75
2022-12-13T10:43:33.703Z,10.57
2022-12-13T10:46:04.252Z,9.45
2022-12-13T10:48:53.113Z,10.90
2022-12-13T10:51:23.728Z,10.35
2022-12-13T10:54:01.460Z,10.48
2022-12-13T10:56:47.583Z,11.43
2022-12-13T10:59:32.124Z,10.57
2022-12-13T11:02:02.615Z,12.93
2022-12-13T11:04:33.977Z,10.13
2022-12-13T11:07:25.565Z,9.88
2022-12-13T11:09:54.172Z,11.70
2022-12-13T11:12:25.794Z,11.45
2022-12-13T11:15:07.098Z,12.90
2022-12-13T11:17:52.508Z,12.20
2022-12-13T11:20:34.110Z,13.15
2022-12-13T11:23:16.634Z,10.77
2022-12-13T11:25:47.236Z,12.77
2022-12-13T11:28:26.812Z,13.23
2022-12-13T11:31:20.268Z,9.38
2022-12-13T11:34:22.464Z,11.88
2022-12-13T11:36:58.418Z,12.77
2022-12-13T11:39:38.958Z,9.57
2022-12-13T11:42:25.904Z,12.23
2022-12-13T11:45:23.689Z,11.70
2022-12-13T11:48:10.390Z,11.65
2022-12-13T11:50:50.573Z,9.52
2022-12-13T11:53:31.468Z,13.50
2022-12-13T11:56:29.364Z,11.70
2022-12-13T11:59:11.280Z,11.60
2022-12-13T12:01:54.857Z,9.20
2022-12-13T12:04:41.709Z,9.98
2022-12-13T12:07:32.978Z,10.88
2022-12-13T12:10:20.399Z,11.70
2022-12-13T12:12:54.506Z,12.00
2022-12-13T12:15:31.068Z,11.65
2022-12-13T12:17:59.760Z,10.45
2022-12-13T12:21:07.116Z,9.77
2022-12-13T12:23:52.483Z,12.68
2022-12-13T12:26:58.836Z,17.40
2022-12-13T12:29:54.805Z,17.45
2022-12-13T12:32:33.047Z,17.33
2022-12-13T12:35:32.641Z,16.35
2022-12-13T12:38:01.037Z,16.92
2022-12-13T12:41:15.693Z,15.77
2022-12-13T12:43:44.405Z,21.35
2022-12-13T12:46:15.728Z,19.17
2022-12-13T12:49:01.140Z,23.27
2022-12-13T12:51:42.707Z,25.88
2022-12-13T12:54:27.457Z,20.48
2022-12-13T12:57:08.318Z,27.33
2022-12-13T13:00:01.651Z,33.30
2022-12-13T13:02:38.697Z,21.95
2022-12-13T13:05:23.849Z,23.02
2022-12-13T13:08:00.497Z,23.85
2022-12-13T13:10:29.627Z,24.52
2022-12-13T13:13:11.909Z,22.83
2022-12-13T13:15:41.538Z,21.92
2022-12-13T13:18:49.093Z,26.98
2022-12-13T13:21:33.736Z,31.75
2022-12-13T13:24:11.038Z,24.27
2022-12-13T13:26:51.616Z,24.38
2022-12-13T13:29:28.445Z,19.85
2022-12-13T13:32:08.490Z,23.90
2022-12-13T13:34:39.808Z,32.95
2022-12-13T13:37:23.441Z,26.63
2022-12-13T13:39:57.741Z,26.90
2022-12-13T13:42:28.383Z,22.25
2022-12-13T13:45:04.185Z,20.83
2022-12-13T13:47:39.863Z,40.58
2022-12-13T13:50:13.786Z,37.53
2022-12-13T13:53:20.224Z,30.33
2022-12-13T13:56:07.130Z,26.30
2022-12-13T13:58:54.088Z,29.92
2022-12-13T14:01:23.658Z,23.88
2022-12-13T14:04:29.859Z,25.42
2022-12-13T14:07:35.476Z,22.70
2022-12-13T14:10:19.172Z,22.27
2022-12-13T14:12:53.658Z,25.27
2022-12-13T14:15:49.645Z,38.30
2022-12-13T14:18:52.342Z,24.92
2022-12-13T14:21:39.752Z,35.60
2022-12-13T14:24:18.303Z,18.83
2022-12-13T14:26:52.663Z,18.67
2022-12-13T14:29:38.700Z,23.00
2022-12-13T14:32:37.674Z,20.92
2022-12-13T14:35:25.413Z,33.75
2022-12-13T14:38:06.489Z,28.60
2022-12-13T14:40:49.325Z,17.17
2022-12-13T14:43:29.903Z,18.80
2022-12-13T14:46:06.204Z,19.00
2022-12-13T14:48:38.367Z,20.25
2022-12-13T14:51:07.023Z,26.45
2022-12-13T14:53:44.414Z,21.27
2022-12-13T14:56:28.711Z,27.17
2022-12-13T14:59:19.057Z,30.30
2022-12-13T15:01:56.684Z,31.88
2022-12-13T15:04:32.725Z,37.80
2022-12-13T15:07:04.413Z,44.40
2022-12-13T15:09:37.321Z,28.75
2022-12-13T15:12:24.749Z,34.00
2022-12-13T15:15:03.837Z,24.25
2022-12-13T15:17:41.032Z,28.63
2022-12-13T15:20:28.367Z,21.77
2022-12-13T15:23:11.895Z,27.85
2022-12-13T15:25:40.918Z,27.58
2022-12-13T15:28:18.106Z,23.35
2022-12-13T15:30:50.672Z,22.90
2022-12-13T15:33:26.350Z,22.00
2022-12-13T15:36:23.943Z,20.02
2022-12-13T15:38:58.413Z,25.70
2022-12-13T15:41:37.645Z,21.70
2022-12-13T15:44:16.481Z,24.67
2022-12-13T15:46:47.952Z,29.00
2022-12-13T15:49:33.496Z,24.40
2022-12-13T15:52:05.619Z,28.70
2022-12-13T15:54:35.181Z,25.98
2022-12-13T15:57:23.727Z,22.70
2022-12-13T16:00:31.085Z,41.55
2022-12-13T16:03:09.479Z,26.33
2022-12-13T16:05:43.328Z,25.67
2022-12-13T16:08:27.411Z,26.50
2022-12-13T16:10:56.208Z,31.13
2022-12-13T16:13:34.211Z,21.02
2022-12-13T16:16:33.393Z,37.30
2022-12-13T16:19:02.686Z,21.38
2022-12-13T16:21:31.131Z,22.15
2022-12-13T16:23:59.493Z,19.40
2022-12-13T16:26:30.214Z,18.95
2022-12-13T16:29:00.519Z,40.65
2022-12-13T16:31:36.290Z,19.70
2022-12-13T16:34:06.108Z,17.27
2022-12-13T16:36:35.023Z,16.50
2022-12-13T16:39:04.152Z,20.15
2022-12-13T16:41:36.535Z,16.67
2022-12-13T16:44:07.517Z,18.27
2022-12-13T16:47:13.758Z,20.92
2022-12-13T16:49:30.131Z,19.17
2022-12-13T16:51:58.892Z,25.65
2022-12-13T16:54:27.861Z,24.13
2022-12-13T16:56:56.362Z,34.92
2022-12-13T16:59:26.852Z,23.60
2022-12-13T17:01:55.890Z,29.38
2022-12-13T17:04:25.467Z,26.42
2022-12-13T17:06:55.090Z,19.98
2022-12-13T17:09:25.466Z,31.15
2022-12-13T17:11:53.928Z,19.58
2022-12-13T17:14:22.327Z,32.80
2022-12-13T17:16:50.828Z,24.58
2022-12-13T17:19:19.223Z,29.02
2022-12-13T17:21:47.635Z,32.42
2022-12-13T17:24:16.319Z,20.42
2022-12-13T17:26:54.605Z,30.25
2022-12-13T17:29:25.703Z,35.72
2022-12-13T17:31:54.332Z,22.50
2022-12-13T17:34:23.022Z,23.42
2022-12-13T17:36:51.503Z,25.92
2022-12-13T17:39:19.956Z,20.75
2022-12-13T17:41:54.756Z,24.40
2022-12-13T17:44:25.548Z,29.75
2022-12-13T17:46:55.769Z,26.02
2022-12-13T17:49:25.556Z,23.15
2022-12-13T17:51:55.220Z,21.65
2022-12-13T17:54:25.031Z,21.83
2022-12-13T17:56:54.279Z,24.02
2022-12-13T17:59:23.163Z,32.50
2022-12-13T18:01:52.290Z,20.25
2022-12-13T18:04:21.776Z,20.75
2022-12-13T18:06:53.088Z,24.25
2022-12-13T18:09:21.556Z,18.52
2022-12-13T18:11:50.001Z,22.17
2022-12-13T18:14:18.444Z,21.67
2022-12-13T18:16:47.592Z,22.98
2022-12-13T18:19:16.329Z,18.92
2022-12-13T18:21:44.715Z,20.88
2022-12-13T18:24:13.362Z,17.58
2022-12-13T18:26:41.812Z,18.83
2022-12-13T18:29:10.589Z,19.70
2022-12-13T18:31:39.079Z,18.15
2022-12-13T18:34:07.937Z,20.05
2022-12-13T18:36:36.966Z,20.65
2022-12-13T18:39:05.623Z,18.60
2022-12-13T18:41:34.799Z,23.98
2022-12-13T18:44:05.474Z,27.25
2022-12-13T18:46:36.029Z,19.73
2022-12-13T18:49:05.544Z,17.77
2022-12-13T18:51:34.751Z,19.58
2022-12-13T18:54:03.206Z,18.50
2022-12-13T18:56:31.818Z,32.30
2022-12-13T18:59:00.485Z,38.45
2022-12-13T19:01:29.429Z,19.45
2022-12-13T19:03:58.114Z,19.85
2022-12-13T19:06:28.778Z,19.30
2022-12-13T19:08:59.071Z,20.10
2022-12-13T19:11:29.084Z,19.00
2022-12-13T19:13:58.044Z,22.13
2022-12-13T19:16:27.537Z,24.27
2022-12-13T19:18:56.072Z,16.60
2022-12-13T19:21:25.194Z,19.17
2022-12-13T19:23:57.476Z,21.17
2022-12-13T19:26:28.979Z,17.90
2022-12-13T19:28:59.263Z,19.10
2022-12-13T19:31:31.871Z,16.02
2022-12-13T19:34:03.079Z,18.60
2022-12-13T19:36:34.194Z,21.65
2022-12-13T19:39:02.725Z,18.07
2022-12-13T19:41:33.036Z,21.50
2022-12-13T19:44:05.266Z,16.23
2022-12-13T19:46:34.266Z,15.67
2022-12-13T19:49:02.898Z,15.67
2022-12-13T19:51:37.494Z,20.03
2022-12-13T19:54:08.140Z,18.00
2022-12-13T19:56:36.517Z,19.57
2022-12-13T19:59:04.982Z,15.80
2022-12-13T20:01:33.670Z,17.47
2022-12-13T20:04:02.588Z,18.10
2022-12-13T20:06:31.400Z,15.97
2022-12-13T20:08:59.896Z,14.60
2022-12-13T20:11:28.257Z,18.40
2022-12-13T20:13:56.923Z,16.17
2022-12-13T20:16:27.690Z,18.37
2022-12-13T20:18:58.991Z,18.13
2022-12-13T20:21:28.564Z,19.57
2022-12-13T20:23:58.506Z,18.83
2022-12-13T20:26:29.409Z,19.80
2022-12-13T20:28:58.159Z,16.63
2022-12-13T20:31:32.239Z,16.77
2022-12-13T20:34:03.233Z,20.97
2022-12-13T20:36:32.549Z,17.87
2022-12-13T20:39:02.696Z,16.73
2022-12-13T20:41:33.979Z,20.03
2022-12-13T20:44:04.094Z,16.10
2022-12-13T20:46:32.883Z,16.83
2022-12-13T20:49:04.312Z,15.57
2022-12-13T20:51:34.153Z,15.43
2022-12-13T20:54:02.670Z,18.77
2022-12-13T20:56:35.860Z,17.70
2022-12-13T20:59:12.367Z,18.67
2022-12-13T21:01:42.084Z,21.53
2022-12-13T21:04:12.381Z,21.40
2022-12-13T21:06:42.637Z,22.40
2022-12-13T21:09:12.540Z,21.25
2022-12-13T21:11:46.229Z,19.23
2022-12-13T21:14:22.173Z,21.37
2022-12-13T21:16:53.638Z,22.47
2022-12-13T21:19:24.985Z,21.60
2022-12-13T21:21:55.105Z,23.03
2022-12-13T21:24:25.511Z,21.83
2022-12-13T21:26:57.176Z,22.53
2022-12-13T21:29:25.986Z,24.80
2022-12-13T21:31:55.437Z,21.77
2022-12-13T21:34:24.235Z,20.40
2022-12-13T21:36:54.137Z,23.57
2022-12-13T21:39:30.545Z,22.87
2022-12-13T21:41:59.313Z,22.23
2022-12-13T21:44:28.011Z,23.47
2022-12-13T21:47:12.949Z,20.50
2022-12-13T21:49:41.862Z,23.67
2022-12-13T21:52:10.340Z,26.40
2022-12-13T21:54:38.732Z,23.67
2022-12-13T21:57:25.603Z,26.80
2022-12-13T21:59:53.984Z,22.80
2022-12-13T22:02:22.439Z,23.77
2022-12-13T22:04:50.904Z,27.67
2022-12-13T22:07:28.171Z,24.60
2022-12-13T22:09:58.052Z,23.60
2022-12-13T22:12:42.693Z,28.97
2022-12-13T22:15:13.703Z,28.20
2022-12-13T22:17:43.750Z,25.70
2022-12-13T22:20:14.838Z,25.17
2022-12-13T22:22:44.917Z,26.77
2022-12-13T22:25:13.389Z,27.10
2022-12-13T22:27:41.828Z,26.30
2022-12-13T22:30:11.300Z,28.93
2022-12-13T22:32:39.688Z,23.87
2022-12-13T22:35:08.699Z,25.23
2022-12-13T22:37:37.077Z,27.93
2022-12-13T22:40:06.568Z,28.60
2022-12-13T22:42:34.972Z,25.20
2022-12-13T22:45:03.373Z,24.20
2022-12-13T22:47:31.759Z,24.20
2022-12-13T22:50:00.364Z,21.83
2022-12-13T22:52:33.618Z,21.13
2022-12-13T22:55:02.478Z,20.60
2022-12-13T22:57:30.861Z,18.83
2022-12-13T22:59:59.233Z,18.20
2022-12-13T23:02:27.724Z,20.47
2022-12-13T23:04:56.134Z,20.40
2022-12-13T23:07:24.509Z,20.43
2022-12-13T23:09:53.003Z,19.20
2022-12-13T23:12:39.522Z,21.53
2022-12-13T23:15:08.622Z,19.83
2022-12-13T23:17:37.201Z,20.97
2022-12-13T23:20:06.015Z,23.10
2022-12-13T23:22:34.462Z,25.07
2022-12-13T23:25:02.932Z,25.17
2022-12-13T23:27:31.427Z,28.07
2022-12-13T23:29:59.842Z,26.67
2022-12-13T23:32:28.247Z,26.37
2022-12-13T23:34:56.707Z,24.33
2022-12-13T23:37:25.361Z,22.80
2022-12-13T23:39:53.764Z,21.60
2022-12-13T23:42:22.271Z,21.27
2022-12-13T23:44:50.672Z,25.60
2022-12-13T23:47:19.052Z,25.03
2022-12-13T23:49:48.299Z,21.60
2022-12-13T23:52:16.924Z,25.33
2022-12-13T23:54:45.310Z,23.27
2022-12-13T23:57:13.671Z,26.77
2022-12-13T23:59:42.312Z,24.33
